Flight Track Log - Related Links

Times and Time Zones

All times are in EDT time to prevent confusion due to time zone crossing. See the PDT4314 flight status page for this flight to view local times or setup timezone preferences in your user account.

Time Position Orientation Groundspeed Altitude Reporting Facility
EDT Latitude Longitude Course Direction KTS MPH feet Rate Location/Type
Tue 06:03:00 PM 42.0428 -75.9255 173° South  Level Estimated
Tue 06:04:00 PM 41.9876 -75.9075 180° South  Level Estimated
Tue 06:05:00 PM 41.9309 -75.9137 185° South  Level FlightAware Approximate
Tue 06:06:00 PM 41.8743 -75.9198 185° South  Level FlightAware Approximate
Tue 06:07:00 PM 41.8176 -75.9260 185° South  Level FlightAware Approximate
Tue 06:08:00 PM 41.7627 -75.9061 154° Southeast  Level Estimated
Tue 06:09:00 PM 41.7079 -75.8862 160° South  Level Estimated
Tue 06:10:00 PM 41.6521 -75.8716 169° South  Level FlightAware Approximate
Tue 06:11:00 PM 41.5972 -75.8516 159° South  Level Estimated
Tue 06:12:00 PM 41.5444 -75.8235 158° South  Level FlightAware Approximate
Tue 06:13:00 PM 41.4895 -75.8039 153° Southeast  Level Estimated
Tue 06:14:00 PM 41.4346 -75.7843 161° South  Level Estimated
Tue 06:15:00 PM 41.3828 -75.7531 156° South  Level FlightAware Approximate
Tue 06:16:00 PM 41.3310 -75.7219 156° South  Level FlightAware Approximate
Tue 06:17:00 PM 41.2791 -75.6908 156° South  Level FlightAware Approximate
Tue 06:18:00 PM 41.2239 -75.6728 162° South  Level Estimated
Tue 06:19:00 PM 41.1704 -75.6473 160° South  Level FlightAware Approximate
Tue 06:20:00 PM 41.1169 -75.6220 160° South  Level FlightAware Approximate
Tue 06:21:00 PM 41.0633 -75.5966 160° South  Level FlightAware Approximate
Tue 06:22:00 PM 41.0098 -75.5713 160° South  Level FlightAware Approximate
Tue 06:23:00 PM 40.9543 -75.5549 163° South  Level Estimated
Tue 06:24:00 PM 40.9004 -75.5310 161° South  Level FlightAware Approximate
Tue 06:25:00 PM 40.8465 -75.5072 162° South  Level FlightAware Approximate
Tue 06:26:00 PM 40.7926 -75.4834 162° South  Level FlightAware Approximate
Tue 06:27:00 PM 40.7386 -75.4597 162° South  Level FlightAware Approximate
Tue 06:27:03 PM 40.6167 -75.5667 207° Southwest 271 312 6,400  Level Philadelphia TRACON
Tue 06:27:45 PM 40.5500 -75.5667 180° South 268 308 5,800 -824 Descending Philadelphia TRACON
Tue 06:28:00 PM 40.6828 -75.4454 190° South  Level Estimated
Tue 06:28:45 PM 40.5000 -75.5333 153° Southeast 258 297 5,000  Level Philadelphia TRACON
Tue 06:29:00 PM 40.6274 -75.4620 193° South  Level FlightAware Approximate
Tue 06:29:45 PM 40.4500 -75.4667 135° Southeast 244 281 5,000  Level Philadelphia TRACON
Tue 06:30:00 PM 40.5577 -75.4828 193° South  Level FlightAware Approximate
Tue 06:30:45 PM 40.4000 -75.4167 143° Southeast 249 287 5,000  Level Philadelphia TRACON
Tue 06:31:00 PM 40.4887 -75.4582 187° South  Level Estimated
Tue 06:31:45 PM 40.3500 -75.3500 135° Southeast 249 287 5,000  Level Philadelphia TRACON
Tue 06:32:00 PM 40.4249 -75.5003 207° Southwest  Level FlightAware Approximate
Tue 06:32:45 PM 40.3000 -75.2833 135° Southeast 249 287 5,000  Level Philadelphia TRACON
Tue 06:33:51 PM 40.2333 -75.2167 143° Southeast 253 291 5,000  Level Philadelphia TRACON
Tue 06:34:45 PM 40.2000 -75.1667 131° Southeast 251 289 5,000  Level Philadelphia TRACON
Tue 06:35:51 PM 40.1333 -75.1000 143° Southeast 251 289 5,000 -238 Level Philadelphia TRACON
Tue 06:36:51 PM 40.0833 -75.0333 134° Southeast 257 296 4,500 -526 Descending Philadelphia TRACON
Tue 06:37:45 PM 40.0167 -75.0167 169° South 248 285 4,000 -900 Descending Philadelphia TRACON
Tue 06:38:51 PM 39.9667 -75.0167 180° South 190 219 2,700 -1,000 Descending Philadelphia TRACON
Tue 06:39:51 PM 39.9167 -75.0667 217° Southwest 183 211 1,900 -450 Descending Philadelphia TRACON
Tue 06:40:51 PM 39.9000 -75.1167 247° West 162 186 1,800 -400 Descending Philadelphia TRACON
Tue 06:41:51 PM 39.8833 -75.1667 247° West 135 155 1,100 -678 Descending Philadelphia TRACON
Tue 06:42:46 PM 39.8833 -75.2000 270° West 82 94 500 -655 Descending Philadelphia TRACON

Login

Don't have an account? Register now (free) for customized features, flight alerts, and more!